Time;durP1;ratioP1;P1;durP2;ratioP2;P2;SDS_P1;SDS_P2;PMS_P1;PMS_P2;Temp;Humidity;BMP_temperature;BMP_pressure;BME280_temperature;BME280_humidity;BME280_pressure;Samples;Min_cycle;Max_cycle;Signal;HPM_P1;HPM_P2
2024/01/22 00:01:09;;;;;;;88.30;52.60;;;16.10;57.50;;;;;;4917057;28;96271;-81
2024/01/22 00:03:35;;;;;;;88.47;52.50;;;16.10;57.40;;;;;;4908469;28;96227;-80
2024/01/22 00:06:00;;;;;;;87.80;52.38;;;16.10;57.40;;;;;;4912069;28;94395;-80
2024/01/22 00:08:26;;;;;;;89.60;52.85;;;16.10;57.50;;;;;;4908814;28;94137;-81
2024/01/22 00:10:51;;;;;;;88.28;52.30;;;16.10;57.40;;;;;;4917468;28;99040;-81
2024/01/22 00:13:17;;;;;;;88.05;52.55;;;16.00;57.40;;;;;;4916271;28;94995;-81
2024/01/22 00:15:43;;;;;;;88.28;52.40;;;16.00;57.40;;;;;;4912060;28;95198;-80
2024/01/22 00:18:08;;;;;;;88.70;52.40;;;16.00;57.40;;;;;;4909390;28;93810;-80
2024/01/22 00:20:34;;;;;;;88.38;52.40;;;16.00;57.50;;;;;;4914054;28;96068;-78
2024/01/22 00:23:00;;;;;;;88.43;52.35;;;16.00;57.50;;;;;;4917572;28;97939;-78
2024/01/22 00:25:25;;;;;;;88.75;52.30;;;16.00;57.50;;;;;;4907158;28;95312;-79
2024/01/22 00:27:51;;;;;;;88.22;52.38;;;15.90;57.50;;;;;;4908418;28;94492;-80
2024/01/22 00:30:16;;;;;;;88.22;52.20;;;15.90;57.50;;;;;;4912426;28;95782;-80
2024/01/22 00:32:42;;;;;;;87.65;52.22;;;15.90;57.50;;;;;;4907215;28;94524;-80
2024/01/22 00:35:08;;;;;;;87.55;51.97;;;15.90;57.60;;;;;;4907138;28;98638;-80
2024/01/22 00:37:34;;;;;;;88.22;52.15;;;15.90;57.50;;;;;;4903330;28;94897;-80
2024/01/22 00:39:59;;;;;;;88.60;52.38;;;15.90;57.60;;;;;;4911628;28;94923;-80
2024/01/22 00:42:25;;;;;;;88.80;52.33;;;15.90;57.60;;;;;;4903652;28;96469;-80
2024/01/22 00:44:51;;;;;;;87.95;52.20;;;15.90;57.50;;;;;;4910615;28;94453;-78
2024/01/22 00:47:16;;;;;;;88.72;52.25;;;15.90;57.60;;;;;;4917593;28;94701;-78
2024/01/22 00:49:42;;;;;;;88.85;52.42;;;15.90;57.60;;;;;;4903354;28;96254;-77
2024/01/22 00:52:08;;;;;;;88.13;52.33;;;15.90;57.70;;;;;;4913896;28;95764;-79
2024/01/22 00:54:34;;;;;;;87.70;52.03;;;15.90;57.60;;;;;;4907177;28;97172;-77
2024/01/22 00:57:00;;;;;;;87.97;52.30;;;15.90;57.60;;;;;;4909458;28;97093;-78
2024/01/22 00:59:25;;;;;;;87.55;52.00;;;15.80;57.60;;;;;;4909051;28;98026;-77
2024/01/22 01:01:51;;;;;;;87.43;51.80;;;15.80;57.60;;;;;;4902031;28;94545;-78
2024/01/22 01:04:17;;;;;;;86.68;51.83;;;15.80;57.70;;;;;;4903920;28;94294;-77
2024/01/22 01:06:43;;;;;;;87.88;52.20;;;15.80;57.70;;;;;;4904726;28;98409;-81
2024/01/22 01:09:09;;;;;;;87.07;52.10;;;15.80;57.70;;;;;;4903828;28;97030;-80
2024/01/22 01:11:34;;;;;;;87.72;51.97;;;15.80;57.70;;;;;;4909337;28;94387;-78
2024/01/22 01:14:00;;;;;;;87.30;51.67;;;15.80;58.30;;;;;;4909955;28;97172;-79
2024/01/22 01:16:27;;;;;;;88.32;52.22;;;15.70;57.70;;;;;;4901306;28;95407;-76
2024/01/22 01:18:53;;;;;;;87.15;52.25;;;15.70;57.70;;;;;;4898015;28;95295;-77
2024/01/22 01:21:22;;;;;;;87.00;52.08;;;15.70;57.70;;;;;;4905369;28;98799;-78
2024/01/22 01:23:48;;;;;;;87.45;52.00;;;15.70;57.70;;;;;;4905624;28;94584;-77
2024/01/22 01:26:14;;;;;;;87.25;51.55;;;15.70;57.80;;;;;;4907299;28;95632;-76
2024/01/22 01:28:40;;;;;;;86.70;51.83;;;15.70;57.80;;;;;;4908167;28;95364;-78
2024/01/22 01:31:05;;;;;;;87.50;51.88;;;15.70;57.80;;;;;;4903291;28;98252;-77
2024/01/22 01:33:32;;;;;;;87.45;51.42;;;15.70;57.80;;;;;;4905685;28;94653;-77
2024/01/22 01:35:58;;;;;;;87.32;52.13;;;15.70;57.90;;;;;;4906601;28;94831;-77
2024/01/22 01:38:23;;;;;;;87.03;52.05;;;15.70;57.90;;;;;;4904421;28;96254;-80
2024/01/22 01:40:49;;;;;;;86.82;51.72;;;15.70;57.90;;;;;;4905602;28;95626;-77
2024/01/22 01:43:17;;;;;;;87.05;51.78;;;15.70;57.90;;;;;;4904377;28;98884;-77
2024/01/22 01:45:43;;;;;;;86.55;51.67;;;15.60;58.00;;;;;;4902471;28;101920;-77
2024/01/22 01:48:08;;;;;;;86.63;51.78;;;15.60;57.90;;;;;;4905013;28;95352;-78
2024/01/22 01:50:34;;;;;;;87.28;51.85;;;15.60;58.00;;;;;;4902636;28;95663;-78
2024/01/22 01:53:01;;;;;;;86.93;51.97;;;15.60;58.00;;;;;;4904580;28;95649;-78
2024/01/22 01:55:28;;;;;;;86.72;51.80;;;15.60;58.00;;;;;;4908242;28;93848;-78
2024/01/22 01:57:54;;;;;;;86.07;51.55;;;15.60;58.00;;;;;;4906342;28;95237;-77
2024/01/22 02:00:20;;;;;;;86.68;51.85;;;15.60;58.00;;;;;;4909135;28;100101;-78
2024/01/22 02:02:46;;;;;;;86.47;51.72;;;15.60;58.10;;;;;;4901686;28;96063;-78
2024/01/22 02:05:13;;;;;;;86.25;51.53;;;15.60;58.10;;;;;;4906021;28;94453;-77
2024/01/22 02:07:39;;;;;;;86.25;51.65;;;15.50;58.10;;;;;;4903277;28;96338;-79
2024/01/22 02:10:05;;;;;;;86.53;51.85;;;15.50;58.10;;;;;;4906883;28;99422;-78
2024/01/22 02:12:31;;;;;;;86.25;51.53;;;15.50;58.20;;;;;;4907341;28;95793;-77
2024/01/22 02:14:57;;;;;;;86.47;51.95;;;15.50;58.30;;;;;;4909035;28;95480;-77
2024/01/22 02:17:22;;;;;;;87.03;51.83;;;15.50;58.20;;;;;;4904847;28;94715;-77
2024/01/22 02:19:49;;;;;;;87.25;51.78;;;15.50;58.20;;;;;;4906332;28;94679;-77
2024/01/22 02:22:15;;;;;;;87.95;51.72;;;15.50;58.30;;;;;;4908624;28;95290;-77
2024/01/22 02:24:41;;;;;;;85.80;51.40;;;15.50;58.30;;;;;;4903554;28;95881;-77
2024/01/22 02:27:07;;;;;;;86.80;51.83;;;15.50;58.30;;;;;;4907299;28;96844;-77
2024/01/22 02:29:32;;;;;;;85.63;51.45;;;15.50;58.30;;;;;;4908182;28;95925;-77
2024/01/22 02:31:58;;;;;;;88.45;51.80;;;15.50;58.40;;;;;;4907917;28;99018;-79
2024/01/22 02:34:24;;;;;;;86.35;51.67;;;15.50;58.50;;;;;;4909481;28;95399;-78
2024/01/22 02:36:50;;;;;;;85.15;51.15;;;15.50;58.50;;;;;;4908280;28;95287;-76
2024/01/22 02:39:16;;;;;;;86.57;51.63;;;15.40;58.50;;;;;;4907042;28;94735;-78
2024/01/22 02:41:42;;;;;;;86.65;51.80;;;15.40;58.50;;;;;;4910204;28;94127;-79
2024/01/22 02:44:07;;;;;;;87.75;51.47;;;15.40;58.50;;;;;;4910280;28;94022;-78
2024/01/22 02:46:33;;;;;;;86.65;51.55;;;15.40;58.60;;;;;;4908394;28;95768;-78
2024/01/22 02:48:59;;;;;;;86.30;51.45;;;15.40;58.50;;;;;;4902634;28;97131;-78
2024/01/22 02:51:25;;;;;;;85.65;51.40;;;15.40;58.60;;;;;;4902672;28;95888;-78
2024/01/22 02:53:52;;;;;;;85.78;51.35;;;15.40;58.60;;;;;;4901034;28;95461;-78
2024/01/22 02:56:18;;;;;;;86.68;51.65;;;15.40;58.70;;;;;;4906155;28;95225;-77
2024/01/22 02:58:44;;;;;;;86.43;51.83;;;15.40;58.70;;;;;;4907689;28;95195;-78
2024/01/22 03:01:10;;;;;;;85.40;51.08;;;15.40;58.80;;;;;;4920521;28;98911;-78
2024/01/22 03:03:35;;;;;;;85.28;51.50;;;15.30;58.70;;;;;;4907178;28;94605;-78
2024/01/22 03:06:01;;;;;;;85.85;51.22;;;15.40;58.80;;;;;;4901456;28;99372;-79
2024/01/22 03:08:27;;;;;;;85.32;51.30;;;15.30;58.80;;;;;;4906726;28;94850;-78
2024/01/22 03:10:52;;;;;;;85.65;51.38;;;15.40;58.80;;;;;;4903690;28;94525;-78
2024/01/22 03:13:18;;;;;;;86.45;51.42;;;15.40;58.90;;;;;;4905505;28;94990;-79
2024/01/22 03:15:44;;;;;;;86.88;51.80;;;15.40;59.00;;;;;;4901912;28;96344;-78
2024/01/22 03:18:09;;;;;;;85.97;51.60;;;15.40;59.00;;;;;;4904279;28;101214;-78
2024/01/22 03:20:37;;;;;;;85.35;51.42;;;15.30;59.00;;;;;;4905046;28;95653;-79
2024/01/22 03:23:06;;;;;;;86.55;51.83;;;15.30;59.10;;;;;;4908302;28;95757;-77
2024/01/22 03:25:32;;;;;;;85.85;51.58;;;15.30;59.00;;;;;;4905820;28;95019;-78
2024/01/22 03:27:57;;;;;;;88.18;51.65;;;15.40;59.20;;;;;;4906089;28;94265;-78
2024/01/22 03:30:23;;;;;;;86.63;51.38;;;15.30;59.20;;;;;;4903814;28;94554;-79
2024/01/22 03:32:49;;;;;;;86.25;51.40;;;15.30;59.20;;;;;;4909167;28;96143;-77
2024/01/22 03:35:15;;;;;;;85.22;51.22;;;15.40;59.30;;;;;;4904879;28;98860;-78
2024/01/22 03:37:41;;;;;;;86.07;51.45;;;15.30;59.30;;;;;;4904228;28;94669;-77
2024/01/22 03:40:08;;;;;;;86.55;51.35;;;15.40;59.30;;;;;;4907155;28;95721;-77
2024/01/22 03:42:34;;;;;;;86.03;51.28;;;15.30;59.40;;;;;;4907214;28;94698;-77
2024/01/22 03:44:59;;;;;;;85.15;51.15;;;15.30;59.40;;;;;;4904837;28;98928;-79
2024/01/22 03:47:27;;;;;;;85.70;51.13;;;15.30;59.30;;;;;;4907600;28;97113;-78
2024/01/22 03:49:53;;;;;;;85.18;50.70;;;15.40;59.50;;;;;;4908581;28;95134;-78
2024/01/22 03:52:18;;;;;;;85.53;51.47;;;15.30;59.40;;;;;;4901789;28;94992;-78
2024/01/22 03:54:44;;;;;;;86.75;51.38;;;15.30;59.50;;;;;;4905188;28;98231;-77
2024/01/22 03:57:10;;;;;;;85.35;51.20;;;15.30;59.40;;;;;;4905068;28;94842;-79
2024/01/22 03:59:37;;;;;;;85.38;51.25;;;15.30;59.50;;;;;;4907606;28;94585;-77
2024/01/22 04:02:05;;;;;;;84.97;50.90;;;15.30;59.40;;;;;;4906554;28;94988;-77
2024/01/22 04:04:31;;;;;;;85.50;51.00;;;15.30;59.50;;;;;;4902116;28;97741;-77
2024/01/22 04:06:57;;;;;;;85.60;51.33;;;15.30;59.50;;;;;;4904296;28;95973;-79
2024/01/22 04:09:22;;;;;;;86.68;51.67;;;15.30;59.50;;;;;;4905054;28;94578;-77
2024/01/22 04:11:48;;;;;;;85.40;51.15;;;15.30;59.50;;;;;;4904342;28;95927;-77
2024/01/22 04:14:14;;;;;;;86.45;51.55;;;15.30;59.50;;;;;;4909649;28;98567;-79
2024/01/22 04:16:39;;;;;;;85.28;51.33;;;15.30;59.50;;;;;;4907471;28;94685;-80
2024/01/22 04:19:05;;;;;;;85.57;51.22;;;15.30;59.60;;;;;;4905821;28;94873;-80
2024/01/22 04:21:31;;;;;;;86.22;51.75;;;15.30;60.20;;;;;;4905266;28;93699;-80
2024/01/22 04:23:57;;;;;;;85.68;51.55;;;15.30;59.60;;;;;;4901427;28;97238;-80
2024/01/22 04:26:23;;;;;;;87.10;51.75;;;15.30;59.70;;;;;;4910658;28;98447;-80
2024/01/22 04:28:49;;;;;;;84.75;50.95;;;15.30;59.70;;;;;;4914217;28;97209;-80
2024/01/22 04:31:15;;;;;;;86.43;51.70;;;15.20;59.60;;;;;;4910165;28;95148;-80
2024/01/22 04:33:43;;;;;;;85.57;51.35;;;15.30;59.70;;;;;;4904723;28;95071;-78
2024/01/22 04:36:09;;;;;;;86.00;51.83;;;15.30;59.70;;;;;;4906879;28;96191;-79
2024/01/22 04:38:35;;;;;;;86.15;51.35;;;15.30;59.80;;;;;;4907733;28;95740;-80
2024/01/22 04:41:01;;;;;;;84.68;51.00;;;15.20;59.70;;;;;;4911934;28;94669;-79
2024/01/22 04:43:26;;;;;;;85.90;51.33;;;15.20;59.70;;;;;;4907562;28;95062;-80
2024/01/22 04:45:52;;;;;;;85.30;51.17;;;15.30;59.80;;;;;;4909878;28;94652;-81
2024/01/22 04:48:18;;;;;;;86.15;51.40;;;15.30;59.80;;;;;;4911372;28;96210;-81
2024/01/22 04:50:43;;;;;;;85.53;51.40;;;15.20;59.80;;;;;;4906569;28;95878;-78
2024/01/22 04:53:09;;;;;;;84.93;51.20;;;15.20;59.80;;;;;;4905748;28;99744;-79
2024/01/22 04:55:35;;;;;;;85.50;51.45;;;15.30;59.80;;;;;;4922205;28;100094;-79
2024/01/22 04:58:00;;;;;;;85.47;51.58;;;15.20;59.90;;;;;;4903783;28;95407;-79
2024/01/22 05:00:26;;;;;;;85.68;51.22;;;15.20;60.10;;;;;;4904818;28;94772;-79
2024/01/22 05:02:52;;;;;;;84.80;51.10;;;15.20;60.00;;;;;;4914369;28;94452;-79
2024/01/22 05:05:18;;;;;;;86.15;51.55;;;15.20;60.20;;;;;;4910295;28;95222;-80
2024/01/22 05:07:44;;;;;;;84.78;50.85;;;15.20;60.60;;;;;;4908896;28;94786;-78
2024/01/22 05:10:09;;;;;;;85.18;51.28;;;15.20;60.50;;;;;;4911613;28;93903;-78
2024/01/22 05:12:36;;;;;;;85.82;51.45;;;15.20;60.60;;;;;;4917527;28;98343;-77
2024/01/22 05:15:02;;;;;;;85.60;51.40;;;15.20;60.60;;;;;;4905638;28;95856;-78
2024/01/22 05:17:28;;;;;;;87.30;51.92;;;15.20;60.70;;;;;;4909814;28;95685;-78
2024/01/22 05:19:54;;;;;;;87.65;52.28;;;15.20;60.90;;;;;;4910208;28;96309;-78
2024/01/22 05:22:21;;;;;;;89.13;52.22;;;15.20;61.10;;;;;;4915966;28;94882;-79
2024/01/22 05:24:47;;;;;;;88.55;52.33;;;15.20;61.10;;;;;;4911033;28;94723;-79
2024/01/22 05:27:12;;;;;;;89.05;52.47;;;15.20;61.30;;;;;;4912780;28;95552;-80
2024/01/22 05:29:38;;;;;;;90.90;52.20;;;15.20;61.30;;;;;;4914977;28;94736;-79
2024/01/22 05:32:04;;;;;;;89.65;52.08;;;15.20;61.30;;;;;;4918226;28;95730;-79
2024/01/22 05:34:30;;;;;;;89.80;51.97;;;15.20;61.40;;;;;;4909069;28;94661;-79
2024/01/22 05:36:55;;;;;;;87.38;51.97;;;15.20;61.50;;;;;;4914955;28;95448;-79
2024/01/22 05:39:21;;;;;;;89.88;52.47;;;15.20;61.60;;;;;;4912590;28;94858;-79
2024/01/22 05:41:47;;;;;;;88.97;52.50;;;15.20;61.70;;;;;;4913788;28;96484;-80
2024/01/22 05:44:13;;;;;;;87.25;51.90;;;15.20;61.70;;;;;;4925432;28;98105;-80
2024/01/22 05:46:39;;;;;;;90.38;52.85;;;15.20;61.90;;;;;;4914046;28;97556;-78
2024/01/22 05:49:05;;;;;;;88.72;52.38;;;15.10;62.00;;;;;;4910801;28;95740;-78
2024/01/22 05:51:31;;;;;;;89.57;52.20;;;15.20;62.20;;;;;;4922561;28;97894;-78
2024/01/22 05:53:59;;;;;;;88.88;51.60;;;15.10;61.80;;;;;;4912082;28;95149;-78
2024/01/22 05:56:26;;;;;;;88.50;52.00;;;15.20;62.00;;;;;;4911199;28;96016;-78
2024/01/22 05:58:53;;;;;;;90.20;51.67;;;15.20;62.30;;;;;;4910105;28;93954;-79
2024/01/22 06:01:26;;;;;;;87.82;52.00;;;15.10;62.40;;;;;;4910682;28;94973;-81
2024/01/22 06:03:52;;;;;;;88.93;51.90;;;15.10;62.60;;;;;;4910927;28;94885;-80
2024/01/22 06:06:19;;;;;;;87.10;52.38;;;15.10;62.50;;;;;;4909526;28;96722;-80
2024/01/22 06:08:48;;;;;;;88.20;52.20;;;15.10;62.90;;;;;;4911633;28;95100;-81
2024/01/22 06:11:17;;;;;;;91.93;52.35;;;15.10;63.30;;;;;;4911141;28;98434;-80
2024/01/22 06:13:43;;;;;;;86.93;52.03;;;15.10;63.90;;;;;;4915632;28;99164;-81
2024/01/22 06:16:09;;;;;;;88.80;52.08;;;15.10;64.10;;;;;;4910181;28;94772;-77
2024/01/22 06:18:36;;;;;;;92.72;52.28;;;15.10;64.60;;;;;;4911054;28;94715;-78
2024/01/22 06:21:03;;;;;;;86.75;51.47;;;15.10;64.50;;;;;;4915605;28;95051;-81
2024/01/22 06:23:28;;;;;;;90.28;52.00;;;15.10;64.20;;;;;;4915370;28;98842;-81
2024/01/22 06:25:56;;;;;;;89.78;52.15;;;15.20;65.00;;;;;;4915857;28;95058;-79
2024/01/22 06:28:23;;;;;;;90.97;52.25;;;15.20;64.60;;;;;;4911415;28;96334;-78
2024/01/22 06:30:48;;;;;;;89.10;52.30;;;15.20;64.80;;;;;;4913811;28;96510;-78
2024/01/22 06:33:14;;;;;;;91.72;52.08;;;15.20;64.80;;;;;;4913735;28;98398;-78
2024/01/22 06:35:40;;;;;;;87.80;51.97;;;15.20;64.50;;;;;;4912637;28;94758;-78
2024/01/22 06:38:05;;;;;;;92.28;52.28;;;15.20;64.40;;;;;;4912413;28;95571;-78
2024/01/22 06:40:33;;;;;;;87.35;51.95;;;15.20;64.30;;;;;;4915106;28;95750;-78
2024/01/22 06:42:58;;;;;;;88.32;52.17;;;15.20;64.20;;;;;;4915123;28;95690;-78
2024/01/22 06:45:25;;;;;;;88.45;51.72;;;15.20;63.90;;;;;;4910453;28;94658;-78
2024/01/22 06:47:52;;;;;;;95.57;52.63;;;15.20;64.20;;;;;;4912847;28;94557;-77
2024/01/22 06:50:18;;;;;;;89.72;52.10;;;15.20;64.50;;;;;;4907579;28;95270;-77
2024/01/22 06:52:45;;;;;;;90.65;52.50;;;15.20;64.30;;;;;;4910472;28;95161;-77
2024/01/22 06:55:12;;;;;;;94.82;52.75;;;15.20;64.30;;;;;;4908042;28;96241;-77
2024/01/22 06:57:38;;;;;;;90.68;52.30;;;15.20;64.40;;;;;;4909869;28;94597;-78
2024/01/22 07:00:07;;;;;;;94.80;53.03;;;15.20;64.20;;;;;;4909723;28;95518;-77
2024/01/22 07:02:33;;;;;;;88.93;52.25;;;15.20;64.10;;;;;;4909279;28;95573;-77
2024/01/22 07:04:59;;;;;;;92.50;52.67;;;15.20;64.70;;;;;;4911114;28;94341;-77
2024/01/22 07:07:25;;;;;;;91.10;52.33;;;15.20;64.20;;;;;;4911683;28;94981;-77
2024/01/22 07:09:52;;;;;;;92.88;52.55;;;15.20;65.10;;;;;;4908592;28;95124;-76
2024/01/22 07:12:19;;;;;;;93.57;52.42;;;15.20;65.60;;;;;;4909747;28;95455;-78
2024/01/22 07:14:45;;;;;;;89.82;52.65;;;15.20;65.30;;;;;;4908103;28;94601;-77
2024/01/22 07:17:13;;;;;;;90.60;52.40;;;15.20;65.50;;;;;;4910174;28;94646;-77
2024/01/22 07:19:39;;;;;;;90.38;52.08;;;15.20;65.50;;;;;;4909876;28;97884;-76
2024/01/22 07:22:04;;;;;;;91.22;52.35;;;15.20;65.90;;;;;;4908046;28;96085;-76
2024/01/22 07:24:31;;;;;;;92.03;52.38;;;15.20;65.90;;;;;;4907893;28;94441;-77
2024/01/22 07:26:57;;;;;;;90.85;52.45;;;15.20;66.20;;;;;;4914822;28;94559;-77
2024/01/22 07:29:22;;;;;;;89.65;52.40;;;15.20;66.00;;;;;;4915937;28;94655;-77
2024/01/22 07:31:48;;;;;;;90.63;52.15;;;15.20;65.70;;;;;;4911397;28;95455;-77
2024/01/22 07:34:14;;;;;;;91.55;51.97;;;15.20;65.60;;;;;;4910506;28;94971;-77
2024/01/22 07:36:39;;;;;;;86.95;52.13;;;15.20;65.50;;;;;;4907573;28;94251;-77
2024/01/22 07:39:07;;;;;;;91.40;52.20;;;15.20;65.50;;;;;;4906297;28;94693;-77
2024/01/22 07:41:36;;;;;;;88.47;52.58;;;15.20;65.40;;;;;;4908833;28;94657;-77
2024/01/22 07:44:03;;;;;;;88.70;51.78;;;15.20;65.30;;;;;;4914295;28;96130;-77
2024/01/22 07:46:29;;;;;;;88.97;52.03;;;15.20;65.30;;;;;;4916273;28;95216;-77
2024/01/22 07:48:55;;;;;;;87.85;51.83;;;15.20;65.20;;;;;;4906658;28;97904;-77
2024/01/22 07:51:21;;;;;;;90.38;52.38;;;15.20;65.20;;;;;;4908055;28;95065;-77
2024/01/22 07:53:47;;;;;;;93.63;52.15;;;15.20;65.10;;;;;;4912589;28;94355;-77
2024/01/22 07:56:12;;;;;;;89.60;52.25;;;15.20;65.00;;;;;;4911274;28;94659;-77
2024/01/22 07:58:41;;;;;;;88.90;52.13;;;15.20;65.00;;;;;;4913817;28;94969;-77
2024/01/22 08:01:08;;;;;;;90.22;52.10;;;15.20;65.00;;;;;;4913372;28;95646;-77
2024/01/22 08:03:34;;;;;;;88.93;52.13;;;15.20;64.80;;;;;;4919821;28;94555;-77
2024/01/22 08:06:00;;;;;;;87.85;51.95;;;15.20;64.80;;;;;;4912922;28;94916;-77
2024/01/22 08:08:26;;;;;;;88.88;51.95;;;15.20;64.80;;;;;;4917074;28;95889;-77
2024/01/22 08:10:52;;;;;;;88.90;52.42;;;15.20;64.80;;;;;;4913116;28;95279;-77
2024/01/22 08:13:18;;;;;;;87.88;52.20;;;15.20;64.70;;;;;;4913229;28;94279;-77
2024/01/22 08:15:44;;;;;;;89.38;51.90;;;15.20;64.60;;;;;;4929790;28;94022;-77
2024/01/22 08:18:11;;;;;;;87.25;51.80;;;15.20;64.60;;;;;;4926108;28;94860;-77
2024/01/22 08:20:36;;;;;;;87.55;52.35;;;15.20;64.60;;;;;;4911864;28;94898;-77
2024/01/22 08:23:02;;;;;;;86.30;51.53;;;15.20;64.50;;;;;;4928610;28;94450;-77
2024/01/22 08:25:28;;;;;;;87.70;51.95;;;15.20;64.50;;;;;;4915909;28;95716;-77
2024/01/22 08:27:58;;;;;;;85.88;51.75;;;15.20;64.40;;;;;;4916548;28;98336;-77
2024/01/22 08:30:25;;;;;;;88.15;52.10;;;15.20;64.40;;;;;;4915583;28;96583;-76
2024/01/22 08:32:51;;;;;;;86.97;51.80;;;15.20;64.30;;;;;;4916016;28;95326;-77
2024/01/22 08:35:19;;;;;;;89.20;52.08;;;15.20;64.40;;;;;;4915610;28;94454;-77
2024/01/22 08:37:50;;;;;;;89.50;52.10;;;15.10;64.30;;;;;;4910759;28;95414;-77
2024/01/22 08:40:21;;;;;;;86.90;52.08;;;15.20;64.30;;;;;;4914557;28;94947;-77
2024/01/22 08:42:54;;;;;;;;;;;15.20;64.30;;;;;;4914090;28;94700;-76
2024/01/22 08:45:23;;;;;;;88.30;51.58;;;15.20;64.20;;;;;;4918227;28;94762;-78
2024/01/22 08:47:50;;;;;;;86.85;51.75;;;15.20;64.10;;;;;;4908344;28;94727;-77
2024/01/22 08:50:21;;;;;;;87.30;51.38;;;15.20;64.10;;;;;;4916013;28;94803;-77
2024/01/22 08:52:48;;;;;;;88.43;51.55;;;15.20;64.10;;;;;;4910943;28;95761;-77
2024/01/22 08:55:15;;;;;;;87.72;52.10;;;15.20;64.00;;;;;;4912788;28;94336;-77
2024/01/22 08:57:41;;;;;;;87.72;51.45;;;15.20;64.00;;;;;;4911357;28;96178;-77
2024/01/22 09:00:10;;;;;;;86.93;51.90;;;15.20;63.90;;;;;;4913435;28;95299;-77
2024/01/22 09:02:39;;;;;;;87.22;51.75;;;15.20;63.90;;;;;;4912215;28;94364;-77
2024/01/22 09:05:07;;;;;;;90.30;51.92;;;15.20;63.90;;;;;;4912032;28;94186;-77
2024/01/22 09:07:33;;;;;;;86.13;52.00;;;15.10;63.90;;;;;;4910243;28;97093;-77
2024/01/22 09:10:00;;;;;;;88.32;51.85;;;15.10;63.90;;;;;;4913926;28;94470;-77
2024/01/22 09:12:26;;;;;;;90.10;52.17;;;15.20;63.90;;;;;;4912089;28;96608;-77
2024/01/22 09:14:52;;;;;;;88.13;52.20;;;15.10;64.00;;;;;;4912109;28;94677;-77
2024/01/22 09:17:17;;;;;;;88.65;52.10;;;15.10;64.10;;;;;;4911751;28;94877;-77
2024/01/22 09:19:43;;;;;;;87.85;52.22;;;15.10;64.20;;;;;;4913826;28;95222;-76
2024/01/22 09:22:09;;;;;;;90.47;52.33;;;15.20;64.30;;;;;;4914573;28;95326;-77
2024/01/22 09:24:34;;;;;;;88.95;52.10;;;15.10;64.30;;;;;;4911554;28;94490;-77
2024/01/22 09:27:00;;;;;;;87.65;52.03;;;15.10;64.10;;;;;;4914281;28;96032;-77
2024/01/22 09:29:26;;;;;;;89.78;52.35;;;15.10;64.30;;;;;;4929228;28;98181;-76
2024/01/22 09:31:52;;;;;;;90.20;51.88;;;15.20;64.30;;;;;;4914280;28;95674;-76
2024/01/22 09:34:18;;;;;;;91.53;52.45;;;15.10;64.40;;;;;;4912841;28;95939;-77
2024/01/22 09:36:43;;;;;;;88.85;51.85;;;15.10;64.40;;;;;;4912265;28;95413;-76
2024/01/22 09:39:09;;;;;;;88.15;52.00;;;15.10;64.40;;;;;;4917268;28;93985;-76
2024/01/22 09:41:35;;;;;;;90.65;52.40;;;15.20;64.30;;;;;;4915698;28;94552;-75
2024/01/22 09:44:02;;;;;;;88.80;52.17;;;15.20;64.20;;;;;;4909947;28;94377;-77
2024/01/22 09:46:29;;;;;;;89.95;52.22;;;15.20;64.10;;;;;;4909861;28;98056;-76
2024/01/22 09:48:54;;;;;;;91.00;52.65;;;15.20;64.10;;;;;;4910025;28;94977;-76
2024/01/22 09:51:20;;;;;;;91.28;52.83;;;15.20;64.30;;;;;;4926144;28;94665;-76
2024/01/22 09:53:47;;;;;;;89.25;52.63;;;15.20;64.30;;;;;;4926827;28;95816;-76
2024/01/22 09:56:19;;;;;;;89.07;52.10;;;15.10;64.10;;;;;;4909866;28;95291;-76
2024/01/22 09:58:46;;;;;;;92.60;52.83;;;15.20;64.20;;;;;;4913086;28;96647;-76
2024/01/22 10:01:12;;;;;;;90.85;52.55;;;15.10;64.20;;;;;;4908496;28;95118;-77
2024/01/22 10:03:39;;;;;;;90.55;52.50;;;15.20;64.20;;;;;;4912316;28;93740;-77
2024/01/22 10:06:05;;;;;;;88.60;52.65;;;15.10;64.10;;;;;;4914249;28;94974;-78
2024/01/22 10:08:31;;;;;;;91.20;52.80;;;15.20;64.20;;;;;;4908780;28;95117;-78
2024/01/22 10:10:57;;;;;;;89.32;52.42;;;15.20;64.00;;;;;;4916525;28;95688;-77
2024/01/22 10:13:23;;;;;;;90.30;52.38;;;15.20;64.10;;;;;;4907189;28;95408;-77
2024/01/22 10:15:49;;;;;;;91.28;52.95;;;15.20;64.10;;;;;;4908415;28;95280;-77
2024/01/22 10:18:17;;;;;;;89.78;52.97;;;15.20;64.00;;;;;;4910759;28;94999;-77
2024/01/22 10:20:44;;;;;;;92.20;52.00;;;15.20;64.00;;;;;;4908890;28;94736;-77
2024/01/22 10:23:15;;;;;;;91.68;52.78;;;15.20;64.00;;;;;;4911865;28;95383;-76
2024/01/22 10:25:42;;;;;;;92.60;52.58;;;15.20;63.90;;;;;;4912685;28;95732;-76
2024/01/22 10:28:10;;;;;;;92.15;52.85;;;15.20;63.80;;;;;;4912026;28;94327;-76
2024/01/22 10:30:38;;;;;;;92.97;53.00;;;15.20;64.00;;;;;;4913801;28;95900;-76
2024/01/22 10:33:13;;;;;;;91.25;52.97;;;15.20;63.80;;;;;;4916141;28;95453;-76
2024/01/22 10:35:40;;;;;;;88.55;52.53;;;15.20;63.80;;;;;;4910446;28;97330;-77
2024/01/22 10:38:06;;;;;;;91.82;52.65;;;15.20;63.70;;;;;;4914999;28;96567;-77
2024/01/22 10:40:32;;;;;;;89.45;52.60;;;15.20;63.80;;;;;;4909891;28;94744;-76
2024/01/22 10:42:58;;;;;;;90.07;52.40;;;15.20;63.60;;;;;;4909635;28;94614;-77
2024/01/22 10:45:30;;;;;;;91.68;52.63;;;15.20;63.50;;;;;;4916895;28;94985;-76
2024/01/22 10:47:56;;;;;;;91.20;52.58;;;15.20;63.60;;;;;;4912547;28;96423;-77
2024/01/22 10:50:23;;;;;;;92.00;52.63;;;15.20;63.50;;;;;;4909900;28;94494;-77
2024/01/22 10:52:49;;;;;;;91.82;52.67;;;15.20;63.50;;;;;;4910510;28;93850;-78
2024/01/22 10:55:15;;;;;;;90.47;52.78;;;15.20;63.70;;;;;;4920254;28;95355;-78
2024/01/22 10:57:43;;;;;;;90.50;52.67;;;15.20;63.50;;;;;;4927138;28;95116;-77
2024/01/22 11:00:12;;;;;;;91.53;52.47;;;15.20;63.60;;;;;;4912282;28;96201;-78
2024/01/22 11:02:42;;;;;;;92.88;53.17;;;15.20;63.60;;;;;;4914541;28;94671;-78
2024/01/22 11:05:14;;;;;;;89.73;52.47;;;15.20;63.80;;;;;;4908034;28;95084;-77
2024/01/22 11:07:40;;;;;;;93.63;52.83;;;15.30;63.60;;;;;;4910590;28;95914;-77
2024/01/22 11:10:09;;;;;;;89.18;52.85;;;15.30;63.60;;;;;;4910434;28;96191;-78
2024/01/22 11:12:54;;;;;;;90.65;52.85;;;15.30;63.70;;;;;;4912583;28;95284;-79
2024/01/22 11:15:20;;;;;;;91.13;52.08;;;15.40;63.70;;;;;;4912204;28;95544;-78
2024/01/22 11:17:47;;;;;;;92.90;53.13;;;15.40;63.40;;;;;;4906900;28;97605;-78
2024/01/22 11:20:20;;;;;;;89.72;52.58;;;15.30;63.50;;;;;;4911773;28;94549;-79
2024/01/22 11:23:04;;;;;;;91.65;53.00;;;15.40;63.50;;;;;;4920815;28;95714;-79
2024/01/22 11:25:29;;;;;;;90.97;52.25;;;15.30;63.40;;;;;;4911056;28;97682;-79
2024/01/22 11:28:08;;;;;;;92.28;53.17;;;15.30;63.40;;;;;;4912394;28;96028;-79
2024/01/22 11:30:41;;;;;;;92.93;53.28;;;15.40;63.50;;;;;;4910221;28;94675;-76
2024/01/22 11:33:31;;;;;;;93.00;53.22;;;15.40;63.40;;;;;;4912926;28;95369;-78
2024/01/22 11:35:56;;;;;;;93.30;52.95;;;15.40;63.40;;;;;;4901939;28;97029;-78
2024/01/22 11:38:53;;;;;;;92.15;52.88;;;15.40;63.50;;;;;;4911436;28;95618;-78
2024/01/22 11:41:33;;;;;;;92.78;52.83;;;15.40;63.20;;;;;;4910807;28;94649;-78
2024/01/22 11:43:59;;;;;;;91.95;52.65;;;15.40;63.30;;;;;;4916644;28;94752;-77
2024/01/22 11:46:26;;;;;;;95.13;52.78;;;15.50;63.40;;;;;;4910562;28;95074;-78
2024/01/22 11:48:53;;;;;;;96.78;53.17;;;15.50;63.30;;;;;;4906816;28;94811;-77
2024/01/22 11:51:28;;;;;;;94.95;53.05;;;15.50;63.30;;;;;;4910837;28;95694;-77
2024/01/22 11:53:56;;;;;;;92.18;52.85;;;15.50;63.30;;;;;;4909256;28;95199;-77
2024/01/22 11:56:22;;;;;;;92.75;52.85;;;15.60;63.50;;;;;;4908586;28;96256;-77
2024/01/22 11:58:52;;;;;;;92.88;53.25;;;15.60;63.10;;;;;;4910698;28;97108;-77
2024/01/22 12:01:20;;;;;;;95.72;53.33;;;15.60;63.10;;;;;;4910158;28;94730;-77
2024/01/22 12:03:45;;;;;;;94.05;52.85;;;15.60;63.10;;;;;;4911985;28;94906;-77
2024/01/22 12:06:11;;;;;;;92.93;52.88;;;15.60;62.80;;;;;;4909415;28;98705;-77
2024/01/22 12:08:37;;;;;;;92.72;52.75;;;15.60;62.80;;;;;;4913518;28;95717;-78
2024/01/22 12:11:06;;;;;;;91.28;52.75;;;15.60;62.80;;;;;;4912702;28;94852;-78
2024/01/22 12:13:37;;;;;;;91.30;52.70;;;15.60;62.80;;;;;;4912599;28;94741;-77
2024/01/22 12:16:03;;;;;;;90.38;52.80;;;15.60;62.80;;;;;;4908320;28;98250;-78
2024/01/22 12:18:29;;;;;;;96.00;53.33;;;15.50;62.80;;;;;;4908807;28;96791;-78
2024/01/22 12:20:54;;;;;;;90.90;52.50;;;15.60;63.00;;;;;;4910461;28;94623;-77
2024/01/22 12:23:34;;;;;;;92.13;52.67;;;15.60;62.80;;;;;;4912022;28;95260;-77
2024/01/22 12:26:00;;;;;;;92.47;52.95;;;15.60;62.70;;;;;;4906024;28;95194;-77